createdAt,value
2022-09-17T00:01:22.717Z,190.87
2022-09-17T00:03:52.667Z,189.63
2022-09-17T00:06:22.563Z,192.63
2022-09-17T00:08:50.749Z,180.77
2022-09-17T00:11:21.166Z,191.07
2022-09-17T00:13:49.796Z,193.27
2022-09-17T00:16:24.391Z,192.90
2022-09-17T00:18:52.272Z,188.57
2022-09-17T00:21:22.269Z,192.20
2022-09-17T00:23:50.275Z,190.10
2022-09-17T00:26:18.149Z,193.47
2022-09-17T00:28:49.414Z,187.23
2022-09-17T00:31:17.359Z,187.87
2022-09-17T00:33:45.457Z,191.03
2022-09-17T00:36:13.596Z,190.17
2022-09-17T00:38:43.456Z,193.00
2022-09-17T00:41:11.408Z,183.33
2022-09-17T00:43:41.996Z,185.90
2022-09-17T00:46:25.013Z,186.23
2022-09-17T00:48:54.370Z,189.33
2022-09-17T00:51:26.904Z,186.13
2022-09-17T00:53:56.806Z,184.70
2022-09-17T00:56:27.695Z,184.80
2022-09-17T00:58:56.451Z,185.07
2022-09-17T01:01:24.639Z,187.00
2022-09-17T01:03:52.559Z,186.43
2022-09-17T01:06:26.526Z,190.07
2022-09-17T01:09:05.924Z,186.40
2022-09-17T01:11:43.480Z,186.80
2022-09-17T01:14:24.493Z,190.43
2022-09-17T01:16:58.245Z,185.37
2022-09-17T01:20:04.524Z,183.97
2022-09-17T01:22:35.827Z,184.17
2022-09-17T01:25:24.786Z,186.27
2022-09-17T01:28:39.369Z,194.57
2022-09-17T01:31:26.477Z,186.97
2022-09-17T01:34:01.504Z,186.43
2022-09-17T01:36:46.309Z,183.57
2022-09-17T01:39:23.008Z,189.17
2022-09-17T01:41:55.293Z,190.87
2022-09-17T01:44:29.569Z,186.53
2022-09-17T01:47:03.090Z,189.03
2022-09-17T01:49:31.788Z,189.93
2022-09-17T01:52:00.228Z,190.87
2022-09-17T01:54:32.158Z,190.80
2022-09-17T01:57:02.882Z,188.70
2022-09-17T01:59:34.424Z,182.37
2022-09-17T02:02:08.443Z,190.67
2022-09-17T02:04:38.237Z,189.07
2022-09-17T02:07:09.715Z,189.83
2022-09-17T02:09:41.124Z,186.50
2022-09-17T02:12:13.188Z,183.17
2022-09-17T02:14:43.992Z,184.17
2022-09-17T02:17:17.880Z,186.87
2022-09-17T02:19:45.845Z,182.47
2022-09-17T02:22:27.597Z,188.73
2022-09-17T02:25:02.710Z,186.93
2022-09-17T02:27:38.822Z,185.33
2022-09-17T02:30:07.802Z,181.33
2022-09-17T02:32:37.269Z,181.90
2022-09-17T02:35:06.417Z,187.87
2022-09-17T02:37:34.560Z,180.27
2022-09-17T02:40:03.782Z,178.85
2022-09-17T02:42:36.921Z,185.53
2022-09-17T02:45:08.892Z,181.47
2022-09-17T02:47:51.084Z,183.47
2022-09-17T02:50:28.341Z,194.20
2022-09-17T02:53:06.100Z,185.63
2022-09-17T02:55:38.626Z,186.20
2022-09-17T02:58:13.795Z,181.90
2022-09-17T03:00:41.782Z,183.10
2022-09-17T03:03:16.142Z,192.97
2022-09-17T03:05:45.527Z,183.20
2022-09-17T03:08:15.764Z,187.20
2022-09-17T03:10:43.645Z,189.73
2022-09-17T03:13:11.542Z,192.93
2022-09-17T03:15:39.476Z,185.83
2022-09-17T03:18:07.279Z,185.93
2022-09-17T03:20:36.831Z,187.10
2022-09-17T03:23:06.792Z,191.07
2022-09-17T03:25:34.673Z,186.53
2022-09-17T03:28:02.913Z,182.43
2022-09-17T03:30:30.697Z,182.67
2022-09-17T03:32:58.594Z,186.63
2022-09-17T03:35:26.542Z,185.23
2022-09-17T03:37:55.704Z,187.60
2022-09-17T03:40:23.935Z,183.03
2022-09-17T03:42:51.796Z,186.77
2022-09-17T03:45:19.626Z,178.80
2022-09-17T03:47:47.728Z,183.13
2022-09-17T03:50:15.533Z,182.13
2022-09-17T03:52:44.238Z,188.47
2022-09-17T03:55:13.477Z,184.33
2022-09-17T03:57:41.273Z,187.87
2022-09-17T04:00:10.182Z,200.03
2022-09-17T04:02:38.128Z,186.02
2022-09-17T04:05:07.424Z,184.93
2022-09-17T04:07:35.221Z,184.93
2022-09-17T04:10:04.933Z,185.75
2022-09-17T04:12:34.301Z,187.17
2022-09-17T04:15:02.430Z,181.27
2022-09-17T04:17:30.271Z,184.03
2022-09-17T04:19:58.224Z,183.87
2022-09-17T04:22:26.179Z,185.37
2022-09-17T04:24:54.114Z,181.38
2022-09-17T04:27:22.049Z,183.05
2022-09-17T04:29:51.406Z,177.48
2022-09-17T04:32:19.597Z,190.02
2022-09-17T04:34:47.467Z,176.90
2022-09-17T04:37:15.543Z,167.45
2022-09-17T04:39:43.368Z,174.13
2022-09-17T04:42:11.204Z,179.90
2022-09-17T04:44:39.098Z,180.55
2022-09-17T04:47:08.555Z,175.65
2022-09-17T04:49:36.536Z,174.07
2022-09-17T04:52:04.742Z,175.32
2022-09-17T04:54:32.675Z,177.68
2022-09-17T04:57:00.596Z,176.65
2022-09-17T04:59:28.753Z,173.95
2022-09-17T05:01:56.689Z,176.15
2022-09-17T05:04:26.021Z,178.20
2022-09-17T05:06:54.406Z,176.68
2022-09-17T05:09:22.224Z,172.27
2022-09-17T05:11:50.010Z,172.20
2022-09-17T05:14:17.966Z,172.73
2022-09-17T05:16:48.961Z,173.80
2022-09-17T05:19:16.832Z,173.20
2022-09-17T05:21:46.077Z,173.65
2022-09-17T05:24:14.051Z,170.27
2022-09-17T05:26:42.203Z,174.93
2022-09-17T05:29:10.277Z,173.10
2022-09-17T05:31:38.358Z,177.57
2022-09-17T05:34:06.266Z,176.35
2022-09-17T05:36:34.100Z,180.05
2022-09-17T05:39:03.596Z,177.10
2022-09-17T05:41:31.516Z,174.67
2022-09-17T05:43:59.439Z,179.50
2022-09-17T05:46:27.735Z,181.57
2022-09-17T05:48:57.022Z,173.68
2022-09-17T05:51:26.051Z,183.80
2022-09-17T05:53:55.644Z,170.60
2022-09-17T05:56:25.501Z,175.23
2022-09-17T05:58:56.941Z,169.33
2022-09-17T06:01:25.101Z,175.93
2022-09-17T06:03:53.536Z,176.83
2022-09-17T06:06:21.443Z,179.47
2022-09-17T06:08:49.344Z,172.70
2022-09-17T06:11:17.226Z,171.67
2022-09-17T06:13:46.456Z,175.30
2022-09-17T06:16:14.280Z,182.50
2022-09-17T06:18:42.135Z,177.10
2022-09-17T06:21:10.506Z,171.30
2022-09-17T06:23:38.313Z,177.87
2022-09-17T06:26:07.523Z,177.63
2022-09-17T06:28:40.577Z,176.40
2022-09-17T06:31:12.403Z,181.17
2022-09-17T06:33:40.642Z,178.05
2022-09-17T06:36:13.613Z,180.38
2022-09-17T06:38:42.604Z,177.47
2022-09-17T06:41:10.548Z,194.90
2022-09-17T06:43:38.370Z,173.57
2022-09-17T06:46:09.050Z,178.68
2022-09-17T06:48:39.118Z,176.57
2022-09-17T06:51:08.582Z,181.30
2022-09-17T06:53:37.843Z,188.83
2022-09-17T06:56:08.317Z,175.80
2022-09-17T06:58:37.891Z,174.40
2022-09-17T07:01:06.473Z,179.70
2022-09-17T07:03:34.813Z,175.33
2022-09-17T07:06:04.072Z,176.43
2022-09-17T07:08:34.474Z,183.20
2022-09-17T07:11:02.497Z,171.93
2022-09-17T07:13:30.274Z,179.50
2022-09-17T07:16:00.569Z,182.77
2022-09-17T07:18:29.243Z,175.17
2022-09-17T07:20:58.110Z,184.30
2022-09-17T07:23:28.767Z,183.10
2022-09-17T07:25:58.170Z,176.53
2022-09-17T07:28:26.642Z,181.33
2022-09-17T07:30:55.735Z,183.07
2022-09-17T07:33:26.325Z,187.27
2022-09-17T07:35:54.952Z,173.93
2022-09-17T07:38:23.101Z,182.57
2022-09-17T07:40:58.087Z,182.75
2022-09-17T07:43:26.453Z,183.90
2022-09-17T07:45:54.630Z,179.23
2022-09-17T07:48:22.769Z,178.68
2022-09-17T07:50:51.238Z,179.90
2022-09-17T07:53:19.089Z,192.93
2022-09-17T07:55:53.455Z,189.70
2022-09-17T07:58:23.171Z,186.50
2022-09-17T08:00:51.606Z,182.95
2022-09-17T08:03:19.691Z,180.27
2022-09-17T08:05:48.180Z,180.05
2022-09-17T08:08:20.919Z,179.23
2022-09-17T08:10:49.141Z,175.18
2022-09-17T08:13:17.166Z,192.57
2022-09-17T08:15:46.870Z,195.10
2022-09-17T08:18:17.420Z,180.10
2022-09-17T08:20:45.344Z,182.80
2022-09-17T08:23:13.527Z,195.88
2022-09-17T08:25:41.431Z,177.45
2022-09-17T08:28:09.565Z,176.00
2022-09-17T08:30:37.357Z,173.45
2022-09-17T08:33:06.742Z,212.77
2022-09-17T08:35:34.629Z,187.48
2022-09-17T08:38:02.604Z,179.95
2022-09-17T08:40:31.576Z,183.40
2022-09-17T08:43:02.494Z,206.88
2022-09-17T08:45:30.609Z,181.90
2022-09-17T08:48:10.744Z,188.77
2022-09-17T08:50:42.747Z,183.63
2022-09-17T08:53:28.459Z,207.32
2022-09-17T08:56:01.292Z,177.55
2022-09-17T08:58:47.939Z,189.43
2022-09-17T09:01:32.663Z,180.45
2022-09-17T09:04:08.483Z,184.73
2022-09-17T09:06:41.134Z,183.52
2022-09-17T09:09:13.607Z,185.02
2022-09-17T09:11:42.691Z,175.23
2022-09-17T09:14:14.633Z,182.50
2022-09-17T09:16:45.272Z,181.43
2022-09-17T09:19:23.792Z,180.57
2022-09-17T09:22:03.493Z,181.25
2022-09-17T09:24:38.543Z,185.63
2022-09-17T09:27:16.915Z,189.02
2022-09-17T09:29:51.252Z,192.48
2022-09-17T09:32:26.388Z,189.90
2022-09-17T09:34:55.901Z,192.65
2022-09-17T09:37:28.163Z,188.48
2022-09-17T09:39:57.988Z,190.77
2022-09-17T09:42:31.146Z,205.52
2022-09-17T09:45:04.785Z,196.57
2022-09-17T09:47:57.807Z,184.15
2022-09-17T09:51:05.115Z,187.50
2022-09-17T09:53:43.001Z,192.68
2022-09-17T09:56:25.029Z,192.32
2022-09-17T09:58:54.195Z,191.25
2022-09-17T10:01:22.347Z,191.77
2022-09-17T10:03:51.992Z,191.27
2022-09-17T10:06:20.825Z,190.20
2022-09-17T10:09:14.405Z,197.40
2022-09-17T10:11:42.522Z,192.32
2022-09-17T10:14:23.611Z,185.43
2022-09-17T10:16:51.613Z,190.45
2022-09-17T10:19:25.011Z,187.18
2022-09-17T10:21:53.524Z,195.98
2022-09-17T10:24:27.195Z,185.82
2022-09-17T10:27:02.046Z,190.32
2022-09-17T10:29:30.336Z,197.48
2022-09-17T10:31:59.356Z,202.77
2022-09-17T10:34:28.652Z,192.45
2022-09-17T10:36:57.356Z,186.45
2022-09-17T10:39:34.771Z,183.68
2022-09-17T10:42:04.661Z,175.85
2022-09-17T10:44:35.184Z,182.25
2022-09-17T10:47:05.799Z,184.50
2022-09-17T10:49:39.968Z,182.45
2022-09-17T10:52:15.617Z,183.45
2022-09-17T10:54:58.856Z,188.52
2022-09-17T10:57:39.185Z,190.23
2022-09-17T11:00:14.448Z,191.82
2022-09-17T11:03:05.871Z,229.95
2022-09-17T11:05:46.919Z,192.85
2022-09-17T11:08:18.602Z,190.98
2022-09-17T11:10:54.255Z,199.60
2022-09-17T11:13:29.917Z,202.75
2022-09-17T11:16:09.746Z,207.38
2022-09-17T11:18:41.537Z,206.50
2022-09-17T11:21:42.177Z,192.77
2022-09-17T11:24:32.832Z,197.18
2022-09-17T11:27:09.289Z,195.88
2022-09-17T11:29:56.736Z,203.25
2022-09-17T11:32:39.562Z,209.07
2022-09-17T11:35:10.209Z,198.90
2022-09-17T11:37:41.688Z,195.23
2022-09-17T11:40:14.918Z,191.50
2022-09-17T11:42:46.689Z,235.23
2022-09-17T11:45:18.835Z,190.85
2022-09-17T11:47:49.341Z,196.18
2022-09-17T11:50:21.366Z,184.10
2022-09-17T11:52:57.424Z,225.65
2022-09-17T11:55:30.641Z,191.93
2022-09-17T11:58:02.529Z,183.55
2022-09-17T12:00:31.740Z,180.25
2022-09-17T12:03:03.238Z,221.82
2022-09-17T12:05:34.427Z,186.18
2022-09-17T12:08:06.114Z,193.07
2022-09-17T12:10:38.698Z,186.65
2022-09-17T12:13:17.939Z,230.77
2022-09-17T12:15:52.945Z,195.02
2022-09-17T12:18:33.312Z,188.82
2022-09-17T12:21:03.175Z,191.20
2022-09-17T12:23:38.819Z,202.32
2022-09-17T12:26:15.524Z,192.93
2022-09-17T12:28:51.925Z,193.07
2022-09-17T12:31:26.271Z,191.13
2022-09-17T12:33:57.619Z,192.77
2022-09-17T12:36:37.667Z,192.02
2022-09-17T12:39:21.404Z,181.55
2022-09-17T12:41:56.682Z,187.82
2022-09-17T12:44:39.277Z,185.10
2022-09-17T12:47:22.350Z,186.55
2022-09-17T12:50:05.270Z,199.60
2022-09-17T12:52:45.521Z,228.70
2022-09-17T12:55:31.076Z,187.20
2022-09-17T12:58:04.594Z,199.88
2022-09-17T13:00:39.108Z,193.02
2022-09-17T13:03:13.135Z,226.88
2022-09-17T13:05:56.981Z,4.35
2022-09-17T13:08:56.354Z,212.25
2022-09-17T13:12:00.204Z,295.08
2022-09-17T13:14:39.284Z,288.67
2022-09-17T13:17:11.981Z,300.50
2022-09-17T13:19:45.393Z,302.50
2022-09-17T13:22:17.949Z,220.85
2022-09-17T13:24:49.071Z,208.23
2022-09-17T13:27:22.640Z,212.40
2022-09-17T13:30:01.136Z,205.43
2022-09-17T13:32:51.200Z,211.75
2022-09-17T13:35:51.486Z,194.85
2022-09-17T13:38:24.273Z,203.93
2022-09-17T13:40:53.083Z,210.60
2022-09-17T13:43:24.025Z,210.63
2022-09-17T13:46:12.398Z,206.52
2022-09-17T13:48:57.829Z,203.10
2022-09-17T13:51:53.472Z,199.18
2022-09-17T13:54:23.461Z,204.15
2022-09-17T13:57:07.110Z,203.68
2022-09-17T13:59:36.536Z,204.82
2022-09-17T14:02:30.840Z,199.13
2022-09-17T14:05:31.176Z,204.05
2022-09-17T14:08:31.176Z,195.48
2022-09-17T14:11:01.531Z,200.20
2022-09-17T14:13:45.036Z,196.52
2022-09-17T14:16:35.829Z,204.48
2022-09-17T14:19:07.052Z,207.60
2022-09-17T14:21:36.742Z,213.38
2022-09-17T14:24:15.239Z,219.18
2022-09-17T14:27:01.657Z,202.63
2022-09-17T14:30:03.166Z,205.45
2022-09-17T14:32:34.196Z,199.35
2022-09-17T14:35:02.790Z,202.40
2022-09-17T14:37:33.417Z,201.57
2022-09-17T14:40:01.257Z,207.80
2022-09-17T14:42:36.325Z,198.30
2022-09-17T14:45:07.436Z,213.02
2022-09-17T14:47:35.473Z,209.75
2022-09-17T14:50:21.732Z,208.95
2022-09-17T14:52:51.705Z,212.98
2022-09-17T14:55:21.535Z,217.77
2022-09-17T14:57:52.657Z,208.57
2022-09-17T15:00:23.214Z,197.05
2022-09-17T15:02:59.379Z,207.80
2022-09-17T15:05:31.700Z,208.07
2022-09-17T15:08:12.453Z,212.15
2022-09-17T15:10:47.436Z,208.52
2022-09-17T15:13:16.923Z,203.90
2022-09-17T15:15:53.701Z,203.75
2022-09-17T15:18:22.342Z,201.38
2022-09-17T15:20:50.905Z,213.63
2022-09-17T15:23:25.390Z,215.48
2022-09-17T15:25:56.557Z,216.20
2022-09-17T15:28:29.760Z,207.32
2022-09-17T15:30:57.987Z,209.35
2022-09-17T15:33:25.915Z,217.02
2022-09-17T15:36:02.242Z,212.90
2022-09-17T15:38:33.155Z,225.23
2022-09-17T15:41:21.042Z,213.73
2022-09-17T15:43:49.424Z,211.15
2022-09-17T15:46:24.601Z,213.75
2022-09-17T15:48:52.433Z,212.13
2022-09-17T15:51:26.474Z,210.68
2022-09-17T15:53:57.819Z,211.88
2022-09-17T15:56:27.685Z,211.25
2022-09-17T15:59:01.032Z,230.82
2022-09-17T16:01:55.491Z,215.77
2022-09-17T16:04:28.811Z,214.73
2022-09-17T16:07:02.153Z,220.30
2022-09-17T16:09:40.408Z,216.70
2022-09-17T16:12:08.526Z,207.20
2022-09-17T16:14:36.384Z,214.27
2022-09-17T16:17:17.069Z,209.00
2022-09-17T16:19:45.021Z,211.40
2022-09-17T16:22:35.177Z,219.77
2022-09-17T16:25:05.247Z,210.55
2022-09-17T16:27:35.508Z,212.10
2022-09-17T16:30:05.352Z,211.10
2022-09-17T16:32:33.161Z,215.88
2022-09-17T16:35:00.978Z,215.23
2022-09-17T16:37:28.791Z,215.07
2022-09-17T16:39:56.616Z,216.40
2022-09-17T16:42:25.804Z,208.52
2022-09-17T16:44:54.859Z,211.07
2022-09-17T16:47:22.665Z,208.52
2022-09-17T16:49:50.441Z,208.73
2022-09-17T16:52:18.842Z,209.13
2022-09-17T16:54:46.668Z,209.35
2022-09-17T16:57:14.476Z,207.73
2022-09-17T16:59:43.733Z,209.30
2022-09-17T17:02:11.796Z,206.15
2022-09-17T17:04:39.564Z,202.38
2022-09-17T17:07:07.360Z,206.68
2022-09-17T17:09:35.161Z,201.15
2022-09-17T17:12:03.357Z,217.80
2022-09-17T17:14:31.164Z,198.52
2022-09-17T17:17:00.427Z,200.00
2022-09-17T17:19:29.417Z,202.02
2022-09-17T17:21:57.200Z,198.68
2022-09-17T17:24:25.412Z,203.75
2022-09-17T17:26:53.245Z,204.90
2022-09-17T17:29:21.545Z,200.90
2022-09-17T17:31:50.025Z,196.77
2022-09-17T17:34:19.332Z,207.10
2022-09-17T17:36:49.640Z,206.00
2022-09-17T17:39:17.517Z,200.88
2022-09-17T17:41:49.636Z,194.10
2022-09-17T17:44:21.689Z,190.75
2022-09-17T17:46:49.495Z,190.80
2022-09-17T17:49:17.808Z,194.15
2022-09-17T17:51:48.496Z,197.68
2022-09-17T17:54:16.437Z,192.45
2022-09-17T17:56:44.216Z,192.07
2022-09-17T17:59:12.005Z,195.67
2022-09-17T18:01:39.838Z,196.67
2022-09-17T18:04:08.543Z,191.53
2022-09-17T18:06:36.503Z,189.45
2022-09-17T18:09:06.066Z,191.88
2022-09-17T18:11:34.466Z,198.13
2022-09-17T18:14:02.482Z,189.60
2022-09-17T18:16:34.057Z,189.43
2022-09-17T18:19:01.927Z,189.98
2022-09-17T18:21:29.972Z,194.68
2022-09-17T18:23:57.757Z,188.25
2022-09-17T18:26:28.630Z,195.85
2022-09-17T18:28:56.694Z,194.88
2022-09-17T18:31:26.593Z,194.93
2022-09-17T18:33:57.635Z,188.10
2022-09-17T18:36:25.937Z,195.88
2022-09-17T18:38:56.537Z,192.13
2022-09-17T18:41:24.581Z,191.77
2022-09-17T18:43:53.784Z,184.07
2022-09-17T18:46:21.649Z,177.95
2022-09-17T18:48:54.604Z,155.88
2022-09-17T18:51:23.001Z,141.07
2022-09-17T18:53:51.763Z,128.00
2022-09-17T18:56:21.474Z,118.72
2022-09-17T18:58:50.237Z,117.82
2022-09-17T19:01:20.262Z,126.45
2022-09-17T19:03:48.285Z,127.05
2022-09-17T19:06:16.496Z,113.55
2022-09-17T19:08:45.062Z,121.65
2022-09-17T19:11:13.241Z,124.25
2022-09-17T19:13:42.709Z,129.85
2022-09-17T19:16:11.812Z,142.73
2022-09-17T19:18:41.084Z,152.55
2022-09-17T19:21:11.492Z,157.65
2022-09-17T19:23:41.976Z,168.20
2022-09-17T19:26:11.460Z,170.40
2022-09-17T19:28:40.800Z,166.52
2022-09-17T19:31:10.066Z,168.68
2022-09-17T19:33:38.469Z,175.40
2022-09-17T19:36:10.201Z,171.85
2022-09-17T19:38:38.402Z,175.38
2022-09-17T19:41:08.340Z,175.70
2022-09-17T19:43:37.039Z,181.13
2022-09-17T19:46:06.222Z,183.88
2022-09-17T19:48:35.745Z,175.73
2022-09-17T19:51:04.332Z,175.73
2022-09-17T19:53:34.684Z,181.02
2022-09-17T19:56:02.866Z,168.30
2022-09-17T19:58:30.628Z,168.15
2022-09-17T20:00:59.080Z,172.18
2022-09-17T20:03:27.309Z,176.63
2022-09-17T20:06:00.193Z,175.63
2022-09-17T20:08:28.221Z,171.48
2022-09-17T20:11:05.572Z,180.50
2022-09-17T20:13:33.393Z,181.07
2022-09-17T20:16:04.995Z,186.70
2022-09-17T20:18:33.060Z,179.68
2022-09-17T20:21:01.058Z,173.35
2022-09-17T20:23:31.759Z,177.98
2022-09-17T20:26:00.995Z,171.77
2022-09-17T20:28:29.033Z,172.63
2022-09-17T20:31:04.258Z,164.90
2022-09-17T20:33:32.372Z,170.35
2022-09-17T20:36:00.802Z,166.38
2022-09-17T20:41:22.100Z,167.65
2022-09-17T20:43:52.544Z,164.50
2022-09-17T20:46:24.815Z,165.77
2022-09-17T20:48:57.483Z,169.38
2022-09-17T20:51:26.918Z,168.50
2022-09-17T20:53:54.778Z,167.57
2022-09-17T20:56:25.337Z,164.05
2022-09-17T20:59:00.045Z,169.25
2022-09-17T21:01:32.268Z,164.68
2022-09-17T21:04:01.473Z,163.95
2022-09-17T21:06:31.127Z,170.95
2022-09-17T21:09:00.068Z,167.63
2022-09-17T21:11:32.657Z,167.63
2022-09-17T21:14:00.747Z,168.85
2022-09-17T21:16:28.966Z,168.30
2022-09-17T21:18:58.007Z,172.05
2022-09-17T21:21:26.658Z,164.77
2022-09-17T21:23:54.971Z,168.35
2022-09-17T21:26:24.049Z,173.57
2022-09-17T21:28:56.354Z,168.70
2022-09-17T21:31:31.098Z,168.35
2022-09-17T21:34:02.207Z,169.27
2022-09-17T21:36:32.072Z,172.20
2022-09-17T21:39:01.078Z,169.65
2022-09-17T21:41:29.191Z,172.20
2022-09-17T21:43:58.440Z,174.02
2022-09-17T21:46:29.081Z,175.65
2022-09-17T21:48:58.166Z,170.25
2022-09-17T21:51:30.294Z,175.10
2022-09-17T21:53:59.541Z,171.77
2022-09-17T21:56:27.623Z,176.10
2022-09-17T21:58:58.663Z,169.77
2022-09-17T22:01:31.128Z,176.82
2022-09-17T22:03:59.963Z,174.57
2022-09-17T22:06:30.250Z,175.20
2022-09-17T22:08:59.301Z,177.43
2022-09-17T22:11:29.482Z,174.43
2022-09-17T22:14:00.923Z,173.50
2022-09-17T22:16:31.176Z,170.30
2022-09-17T22:18:59.727Z,177.05
2022-09-17T22:21:28.916Z,173.20
2022-09-17T22:24:02.077Z,170.32
2022-09-17T22:26:31.946Z,174.52
2022-09-17T22:29:03.740Z,172.18
2022-09-17T22:31:31.882Z,168.23
2022-09-17T22:33:59.965Z,173.23
2022-09-17T22:36:28.461Z,167.93
2022-09-17T22:38:58.391Z,172.85
2022-09-17T22:41:27.699Z,175.32
2022-09-17T22:43:56.940Z,166.73
2022-09-17T22:46:28.381Z,172.68
2022-09-17T22:48:56.680Z,172.80
2022-09-17T22:51:24.656Z,168.73
2022-09-17T22:53:53.038Z,175.50
2022-09-17T22:56:23.315Z,167.90
2022-09-17T22:58:51.658Z,167.98
2022-09-17T23:01:21.523Z,174.48
2022-09-17T23:03:52.597Z,173.23
2022-09-17T23:06:22.436Z,174.15
2022-09-17T23:08:50.786Z,173.40
2022-09-17T23:11:20.059Z,166.98
2022-09-17T23:13:48.824Z,164.80
2022-09-17T23:16:17.364Z,174.48
2022-09-17T23:18:45.512Z,172.63
2022-09-17T23:21:16.655Z,174.02
2022-09-17T23:23:46.097Z,173.75
2022-09-17T23:26:16.665Z,165.30
2022-09-17T23:28:44.569Z,172.77
2022-09-17T23:31:14.665Z,174.32
2022-09-17T23:33:42.961Z,171.57
2022-09-17T23:36:13.226Z,171.13
2022-09-17T23:38:43.603Z,170.23
2022-09-17T23:41:13.693Z,169.88
2022-09-17T23:43:41.971Z,173.45
2022-09-17T23:46:10.212Z,172.30
2022-09-17T23:48:38.907Z,167.93
2022-09-17T23:51:07.235Z,168.18
2022-09-17T23:53:37.088Z,170.77
2022-09-17T23:56:12.707Z,171.48
2022-09-17T23:58:41.085Z,171.65
